Weather at Fox River Airport

Public forecast

Using degrees Fahrenheit for public forecast. Weather courtesy of forecast.io.

Closest aviation weather report (METAR) to Fox River Airport

Closest report is Burlington Municipal Airport, 4.3 nm (7.9 km) SSW.

2024/06/19 07:35 (retrieved 25 minutes ago)

KBUU 190735Z AUTO 21009G14KT 10SM SCT110 25/18 A3007 RMK AO2 T02450182 PWINO

Closest aviation forecast (TAF) to Fox River Airport

Closest forecast is Kenosha Regional Airport, 17.0 nm (31.5 km) ESE.

2024/06/19 06:45 (retrieved 1 hour ago)

TAF KENW 190541Z 1906/2006 21011G20KT P6SM FEW240 FM191400 24010G18KT P6SM SKC FM191700 23010KT P6SM FEW170 PROB30 1919/1921 4SM -SHRA BKN090 FM192100 21008KT P6SM SCT100 PROB30 1921/1924 4SM TSRA BKN100CB FM200000 33007KT P6SM SCT100 PROB30 2000/2002 4SM -TSRA BKN100CB BKN130 FM200200 02005KT P6SM SCT130 PROB30 2002/2006 4SM -TSRA BKN130CB